Latest Coastal Weather Observations for Swan Island

IDT60701

Issued at 10:02 am EDT Wednesday 22 November 2017 (issued every 10 minutes, with the page automatically refreshed every 10 minutes)

About coastal observations | Map of coastal stations | Coastal observations for TAS | Marine services | Other Formats
Station Details ID: 092123 Name: SWAN ISLAND Lat: -40.73 Lon: 148.12 Height: 15.0 m
Data from the previous 72 hours. | See also: Recent months at Swan Island
Date/Time
EDT
Temp
°C
Wind Pressure Rain since
9am
mm
Weather Cloud Vis
km
Sea
Height
m
Swell
Dir  Spd
kts
Gust
kts
hPa Trend Height
m
Period
s
Dir
22/10:00am 19.0 E 7 9 1021.7 - 0.0 - - - - - - -
22/09:30am 19.7 E 8 9 1021.8 - 0.0 - - - - - - -
22/09:00am 18.7 E 8 11 1021.9 - 0.0 - - - - - - -
22/08:30am 17.1 E 9 11 1021.9 - 0.0 - - - - - - -
22/08:00am 17.3 E 5 6 1021.9 - 0.0 - - - - - - -
22/07:30am 16.6 E 5 6 1021.9 - 0.0 - - - - - - -
22/07:00am 16.3 E 7 8 1021.9 - 0.0 - - - - - - -
22/06:30am 16.2 E 7 8 1021.8 - 0.0 - - - - - - -
22/06:00am 16.0 E 5 7 1021.8 - 0.0 - - - - - - -
22/05:30am 16.0 ENE 6 7 1021.9 - 0.0 - - - - - - -
22/05:00am 15.9 ENE 5 7 1021.7 - 0.0 - - - - - - -
22/04:30am 15.9 ENE 6 7 1021.6 - 0.0 - - - - - - -
22/04:00am 15.9 ENE 7 8 1021.6 - 0.0 - - - - - - -
22/03:30am 15.9 NE 8 9 1021.8 - 0.0 - - - - - - -
22/03:00am 15.7 NE 5 7 1021.9 - 0.0 - - - - - - -
22/02:30am 16.0 NE 7 8 1022.0 - 0.0 - - - - - - -
22/02:00am 16.1 NE 8 10 1022.2 - 0.0 - - - - - - -
22/01:30am 15.7 NE 10 11 1022.3 - 0.0 - - - - - - -
22/01:00am 15.8 ENE 7 9 1022.5 - 0.0 - - - - - - -
22/12:30am 15.6 E 8 9 1022.6 - 0.0 - - - - - - -
22/12:00am 15.7 ENE 9 11 1022.9 - 0.0 - - - - - - -
 
Date/Time
EDT
Temp
°C
Wind Pressure Rain since
9am
mm
Weather Cloud Vis
km
Sea
Height
m
Swell
Dir  Spd
kts
Gust
kts
hPa Trend Height
m
Period
s
Dir
21/11:30pm 15.7 E 9 10 1023.1 - 0.0 - - - - - - -
21/11:00pm 15.6 E 6 8 1023.3 - 0.0 - - - - - - -
21/10:30pm 15.7 E 8 9 1023.3 - 0.0 - - - - - - -
21/10:00pm 15.9 E 9 10 1023.3 - 0.0 - - - - - - -
21/09:30pm 16.0 ENE 8 9 1023.3 - 0.0 - - - - - - -
21/09:00pm 16.2 ENE 8 10 1023.2 - 0.0 - - - - - - -
21/08:30pm 16.3 ENE 11 13 1022.8 - 0.0 - - - - - - -
21/08:00pm 16.5 ENE 9 11 1022.8 - 0.0 - - - - - - -
21/07:30pm 16.7 ENE 10 11 1022.9 - 0.0 - - - - - - -
21/07:00pm 17.0 ENE 10 12 1022.6 - 0.0 - - - - - - -
21/06:30pm 17.3 ENE 11 13 1022.5 - 0.0 - - - - - - -
21/06:00pm 17.6 ENE 10 13 1022.5 - 0.0 - - - - - - -
21/05:30pm 18.0 ENE 10 12 1022.6 - 0.0 - - - - - - -
21/05:00pm 18.1 ENE 11 14 1022.7 - 0.0 - - - - - - -
21/04:30pm 18.3 ENE 12 14 1022.8 - 0.0 - - - - - - -
21/04:00pm 18.5 ENE 11 13 1023.0 - 0.0 - - - - - - -
21/03:30pm 18.7 ENE 12 14 1023.1 - 0.0 - - - - - - -
21/03:00pm 19.7 E 11 13 1023.4 - 0.0 - - - - - - -
21/02:30pm 20.0 E 11 13 1023.7 - 0.0 - - - - - - -
21/02:00pm 20.1 E 11 13 1024.0 - 0.0 - - - - - - -
21/01:30pm 20.4 E 10 12 1024.2 - 0.0 - - - - - - -
21/01:00pm 20.0 E 12 15 1024.5 - 0.0 - - - - - - -
21/12:30pm 20.3 E 10 12 1024.6 - 0.0 - - - - - - -
21/12:00pm 20.2 E 10 12 1024.8 - 0.0 - - - - - - -
21/11:30am 21.0 E 8 10 1025.1 - 0.0 - - - - - - -
21/11:00am 20.0 E 8 10 1025.2 - 0.0 - - - - - - -
21/10:30am 19.1 ENE 10 12 1025.1 - 0.0 - - - - - - -
21/10:00am 18.5 ENE 11 13 1025.1 - 0.0 - - - - - - -
21/09:30am 18.4 ENE 12 13 1025.2 - 0.0 - - - - - - -
21/09:00am 17.5 ENE 10 12 1025.5 - 0.0 - - - - - - -
21/08:30am 17.3 ENE 11 14 1025.2 - 0.0 - - - - - - -
21/08:00am 17.0 ENE 10 12 1025.1 - 0.0 - - - - - - -
21/07:30am 16.8 ENE 12 17 1024.9 - 0.0 - - - - - - -
21/07:00am 16.6 NE 11 14 1024.7 - 0.0 - - - - - - -
21/06:30am 16.1 ENE 9 11 1024.5 - 0.0 - - - - - - -
21/06:00am 16.1 ENE 10 14 1024.3 - 0.0 - - - - - - -
21/05:30am 16.0 ENE 10 13 1024.0 - 0.0 - - - - - - -
21/05:00am 15.9 ENE 8 10 1023.8 - 0.0 - - - - - - -
21/04:30am 15.7 ENE 7 8 1023.8 - 0.0 - - - - - - -
21/04:00am 15.6 E 6 7 1024.1 - 0.0 - - - - - - -
21/03:30am 15.5 E 5 6 1024.2 - 0.0 - - - - - - -
21/03:00am 15.6 ENE 6 7 1024.3 - 0.0 - - - - - - -
21/02:30am 15.6 E 7 9 1024.5 - 0.0 - - - - - - -
21/02:00am 15.7 ENE 7 8 1024.8 - 0.0 - - - - - - -
21/01:30am 15.7 ENE 8 9 1025.0 - 0.0 - - - - - - -
21/01:00am 15.6 E 7 9 1025.2 - 0.0 - - - - - - -
21/12:30am 15.7 E 8 9 1025.6 - 0.0 - - - - - - -
21/12:00am 15.7 ENE 9 10 1025.6 - 0.0 - - - - - - -
 
Date/Time
EDT
Temp
°C
Wind Pressure Rain since
9am
mm
Weather Cloud Vis
km
Sea
Height
m
Swell
Dir  Spd
kts
Gust
kts
hPa Trend Height
m
Period
s
Dir
20/11:30pm 15.5 ENE 9 10 1025.6 - 0.0 - - - - - - -
20/11:00pm 15.6 ENE 8 9 1025.9 - 0.0 - - - - - - -
20/10:30pm 15.5 ENE 7 8 1026.0 - 0.0 - - - - - - -
20/10:00pm 15.6 E 8 9 1026.0 - 0.0 - - - - - - -
20/09:30pm 15.7 E 9 10 1025.9 - 0.0 - - - - - - -
20/09:00pm 15.8 E 9 10 1025.8 - 0.0 - - - - - - -
20/08:30pm 15.9 ENE 8 9 1025.7 - 0.0 - - - - - - -
20/08:00pm 16.1 ENE 7 9 1025.5 - 0.0 - - - - - - -
20/07:30pm 16.3 ENE 8 9 1025.3 - 0.0 - - - - - - -
20/07:00pm 16.5 ENE 7 9 1025.1 - 0.0 - - - - - - -
20/06:30pm 16.8 ENE 9 10 1025.0 - 0.0 - - - - - - -
20/06:00pm 17.0 ENE 9 10 1024.8 - 0.0 - - - - - - -
20/05:30pm 17.3 ENE 10 11 1024.7 - 0.0 - - - - - - -
20/05:00pm 17.8 E 9 10 1024.7 - 0.0 - - - - - - -
20/04:30pm 18.3 ENE 9 11 1024.8 - 0.0 - - - - - - -
20/04:00pm 17.8 ENE 10 12 1024.9 - 0.0 - - - - - - -
20/03:30pm 17.7 ENE 10 12 1025.2 - 0.0 - - - - - - -
20/03:00pm 18.1 ENE 10 12 1025.4 - 0.0 - - - - - - -
20/02:30pm 18.9 ENE 10 12 1025.7 - 0.0 - - - - - - -
20/02:00pm 18.4 ENE 11 13 1025.9 - 0.0 - - - - - - -
20/01:30pm 19.2 E 10 13 1026.1 - 0.0 - - - - - - -
20/01:00pm 20.1 E 11 13 1026.5 - 0.0 - - - - - - -
20/12:30pm 19.8 E 11 13 1026.7 - 0.0 - - - - - - -
20/12:00pm 19.7 E 8 10 1026.7 - 0.0 - - - - - - -
20/11:30am 20.5 E 9 11 1026.9 - 0.0 - - - - - - -
20/11:00am 19.9 E 8 10 1027.1 - 0.0 - - - - - - -
20/10:30am 19.9 ESE 9 10 1027.1 - 0.0 - - - - - - -
20/10:00am 19.3 E 10 12 1027.0 - 0.0 - - - - - - -
20/09:30am 18.9 ESE 10 12 1027.0 - 0.0 - - - - - - -
20/09:00am 18.3 ESE 9 11 1026.8 - 0.2 - - - - - - -
20/08:30am 17.7 E 8 10 1026.8 - 0.2 - - - - - - -
20/08:00am 16.8 E 9 11 1026.5 - 0.2 - - - - - - -
20/07:30am 16.5 E 9 10 1026.5 - 0.2 - - - - - - -
20/07:00am 15.9 ESE 8 9 1026.4 - 0.2 - - - - - - -
20/06:30am 15.7 ESE 7 8 1026.0 - 0.2 - - - - - - -
20/06:00am 15.3 E 7 9 1025.6 - 0.2 - - - - - - -
20/05:30am 15.0 ESE 8 9 1025.5 - 0.2 - - - - - - -
20/05:00am 15.3 ESE 7 8 1025.4 - 0.2 - - - - - - -
20/04:30am 15.1 ESE 9 10 1025.2 - 0.2 - - - - - - -
20/04:00am 15.2 ESE 8 10 1025.4 - 0.0 - - - - - - -
20/03:30am 15.3 E 7 9 1025.3 - 0.0 - - - - - - -
20/03:00am 15.2 E 7 8 1025.4 - 0.0 - - - - - - -
20/02:30am 14.9 SE 6 7 1025.5 - 0.0 - - - - - - -
20/02:00am 15.0 ESE 6 7 1025.6 - 0.0 - - - - - - -
20/01:30am 15.2 ESE 6 8 1025.7 - 0.0 - - - - - - -
20/01:00am 15.1 E 8 9 1025.8 - 0.0 - - - - - - -
20/12:30am 15.2 E 8 9 1025.9 - 0.0 - - - - - - -
20/12:00am 15.3 E 8 10 1025.7 - 0.0 - - - - - - -
 
Date/Time
EDT
Temp
°C
Wind Pressure Rain since
9am
mm
Weather Cloud Vis
km
Sea
Height
m
Swell
Dir  Spd
kts
Gust
kts
hPa Trend Height
m
Period
s
Dir
19/11:30pm 15.3 ESE 6 7 1025.8 - 0.0 - - - - - - -
19/11:00pm 15.4 E 7 9 1025.8 - 0.0 - - - - - - -
19/10:30pm 15.6 ENE 8 9 1025.7 - 0.0 - - - - - - -
19/10:00pm 15.5 E 6 8 1025.9 - 0.0 - - - - - - -
19/09:30pm 15.8 ENE 8 9 1025.8 - 0.0 - - - - - - -
19/09:00pm 15.9 ENE 9 11 1025.5 - 0.0 - - - - - - -
19/08:30pm 16.1 ENE 10 12 1025.2 - 0.0 - - - - - - -
19/08:00pm 16.3 ENE 10 12 1025.2 - 0.0 - - - - - - -
19/07:30pm 16.5 ENE 10 12 1025.0 - 0.0 - - - - - - -
19/07:00pm 16.7 ENE 10 11 1024.7 - 0.0 - - - - - - -
19/06:30pm 17.2 E 9 11 1024.5 - 0.0 - - - - - - -
19/06:00pm 17.4 ENE 10 12 1024.5 - 0.0 - - - - - - -
19/05:30pm 17.7 ENE 8 10 1024.6 - 0.0 - - - - - - -
19/05:00pm 18.0 ENE 9 11 1024.6 - 0.0 - - - - - - -
19/04:30pm 18.3 ENE 8 9 1024.8 - 0.0 - - - - - - -
19/04:00pm 18.4 ENE 8 9 1024.7 - 0.0 - - - - - - -
19/03:30pm 18.5 ENE 9 11 1024.8 - 0.0 - - - - - - -
19/03:00pm 18.9 ENE 11 13 1024.9 - 0.0 - - - - - - -
19/02:30pm 18.8 ENE 11 14 1025.1 - 0.0 - - - - - - -
19/02:00pm 19.0 ENE 11 13 1025.1 - 0.0 - - - - - - -
19/01:30pm 19.7 E 9 12 1025.4 - 0.0 - - - - - - -
19/01:00pm 19.1 ENE 9 11 1025.5 - 0.0 - - - - - - -
19/12:30pm 19.9 E 10 12 1025.5 - 0.0 - - - - - - -
19/12:00pm 19.3 ENE 10 13 1025.4 - 0.0 - - - - - - -
19/11:30am 19.0 ENE 8 11 1025.4 - 0.0 - - - - - - -
19/11:00am 19.9 ESE 5 7 1025.5 - 0.0 - - - - - - -
19/10:30am 18.9 ENE 9 10 1025.3 - 0.0 - - - - - - -

Other Formats:

Comma delimited format used in spreadsheet applications
http://www.bom.gov.au/fwo/IDT60701/IDT60701.95985.axf

JavaScript Object Notation format (JSON) in row-major order
http://www.bom.gov.au/fwo/IDT60701/IDT60701.95985.json